Главная страница
METAR-TAF:

METAR-TAF

Аэропорты :

York Airport

Йорк, Пенсильвания, США

широта: 39-55-10N, долгота: 076-52-37W, высота над уровнем моря: 146 м

Текущие метеонаблюдения

Эта сводка был подготовлена 34 минут назад, в 21:53 UTC
Ветер 7 Узел от северо-восточный
Температура 17°C
Влажность 23%
Давление 1027 hPa
Видимость: 16.1 км
ясное небо

METAR: KTHV 192153Z AUTO 05007KT 10SM CLR 17/M04 A3032 RMK AO2 SLP270 T01671039

Время: 18:27 (22:27 UTC)


TAF: отсутствует

Метеонаблюдения и прогнозы для более 4000 аэропортов (сводки METAR и TAF).

Имеющиеся станции представлены на карте желтыми и красными точками.

Чтобы увидеть название станции, наведите на нее мышь.

Затем щелкните, чтобы увидеть метеонаблюдения и метеопрогнозы.

Управление картой: чтобы увеличить масштаб, щелкните зеленые кнопки с черным крестиком; чтобы уменьшить масштаб, щелкните зеленую кнопку с тире; для просмотра соседних карт щелкайте зеленые стрелки.


METAR-TAF: